sensor_id;sensor_type;location;lat;lon;timestamp;temperature;humidity
62476;DHT22;50739;45.670;11.936;2024-02-23T00:04:23;9.71;97.22
62476;DHT22;50739;45.670;11.936;2024-02-23T00:09:25;9.62;97.52
62476;DHT22;50739;45.670;11.936;2024-02-23T00:14:28;9.59;97.30
62476;DHT22;50739;45.670;11.936;2024-02-23T00:19:33;9.59;97.29
62476;DHT22;50739;45.670;11.936;2024-02-23T00:24:35;9.68;97.10
62476;DHT22;50739;45.670;11.936;2024-02-23T00:29:38;9.66;97.08
62476;DHT22;50739;45.670;11.936;2024-02-23T00:34:43;9.61;97.20
62476;DHT22;50739;45.670;11.936;2024-02-23T00:39:45;9.56;97.34
62476;DHT22;50739;45.670;11.936;2024-02-23T00:44:47;9.52;97.46
62476;DHT22;50739;45.670;11.936;2024-02-23T00:49:51;9.51;97.54
62476;DHT22;50739;45.670;11.936;2024-02-23T00:54:53;9.55;97.27
62476;DHT22;50739;45.670;11.936;2024-02-23T00:59:56;9.59;97.41
62476;DHT22;50739;45.670;11.936;2024-02-23T01:04:59;9.53;97.57
62476;DHT22;50739;45.670;11.936;2024-02-23T01:10:04;9.48;97.61
62476;DHT22;50739;45.670;11.936;2024-02-23T01:15:06;9.48;97.63
62476;DHT22;50739;45.670;11.936;2024-02-23T01:20:10;9.53;97.54
62476;DHT22;50739;45.670;11.936;2024-02-23T01:25:13;9.46;97.58
62476;DHT22;50739;45.670;11.936;2024-02-23T01:30:16;9.48;97.43
62476;DHT22;50739;45.670;11.936;2024-02-23T01:35:21;9.52;97.40
62476;DHT22;50739;45.670;11.936;2024-02-23T01:40:23;9.49;97.44
62476;DHT22;50739;45.670;11.936;2024-02-23T01:45:25;9.44;97.68
62476;DHT22;50739;45.670;11.936;2024-02-23T01:50:29;9.52;97.20
62476;DHT22;50739;45.670;11.936;2024-02-23T01:55:32;9.48;97.44
62476;DHT22;50739;45.670;11.936;2024-02-23T02:00:35;9.48;97.54
62476;DHT22;50739;45.670;11.936;2024-02-23T02:05:40;9.52;97.49
62476;DHT22;50739;45.670;11.936;2024-02-23T02:10:42;9.42;97.82
62476;DHT22;50739;45.670;11.936;2024-02-23T02:15:46;9.51;97.30
62476;DHT22;50739;45.670;11.936;2024-02-23T02:20:55;9.53;97.36
62476;DHT22;50739;45.670;11.936;2024-02-23T02:25:58;9.51;97.58
62476;DHT22;50739;45.670;11.936;2024-02-23T02:31:01;9.55;97.63
62476;DHT22;50739;45.670;11.936;2024-02-23T02:36:06;9.53;97.78
62476;DHT22;50739;45.670;11.936;2024-02-23T02:41:08;9.49;97.79
62476;DHT22;50739;45.670;11.936;2024-02-23T02:46:11;9.49;97.93
62476;DHT22;50739;45.670;11.936;2024-02-23T02:51:14;9.49;97.89
62476;DHT22;50739;45.670;11.936;2024-02-23T02:56:17;9.53;97.79
62476;DHT22;50739;45.670;11.936;2024-02-23T03:01:19;9.53;97.92
62476;DHT22;50739;45.670;11.936;2024-02-23T03:06:23;9.65;97.34
62476;DHT22;50739;45.670;11.936;2024-02-23T03:11:25;9.68;97.38
62476;DHT22;50739;45.670;11.936;2024-02-23T03:16:28;9.71;97.11
62476;DHT22;50739;45.670;11.936;2024-02-23T03:21:33;9.75;97.14
62476;DHT22;50739;45.670;11.936;2024-02-23T03:26:35;9.75;97.24
62476;DHT22;50739;45.670;11.936;2024-02-23T03:31:38;9.78;97.35
62476;DHT22;50739;45.670;11.936;2024-02-23T03:36:41;9.79;97.36
62476;DHT22;50739;45.670;11.936;2024-02-23T03:41:44;9.82;97.19
62476;DHT22;50739;45.670;11.936;2024-02-23T03:46:46;9.83;97.21
62476;DHT22;50739;45.670;11.936;2024-02-23T03:51:50;9.87;97.47
62476;DHT22;50739;45.670;11.936;2024-02-23T03:56:52;9.93;97.20
62476;DHT22;50739;45.670;11.936;2024-02-23T04:01:54;9.79;97.76
62476;DHT22;50739;45.670;11.936;2024-02-23T04:06:58;9.90;97.36
62476;DHT22;50739;45.670;11.936;2024-02-23T04:12:00;10.00;97.35
62476;DHT22;50739;45.670;11.936;2024-02-23T04:17:03;9.87;97.64
62476;DHT22;50739;45.670;11.936;2024-02-23T04:22:08;9.91;97.81
62476;DHT22;50739;45.670;11.936;2024-02-23T04:27:11;9.93;97.70
62476;DHT22;50739;45.670;11.936;2024-02-23T04:32:13;9.87;97.98
62476;DHT22;50739;45.670;11.936;2024-02-23T04:37:17;9.96;97.47
62476;DHT22;50739;45.670;11.936;2024-02-23T04:42:19;9.99;97.57
62476;DHT22;50739;45.670;11.936;2024-02-23T04:47:22;9.93;97.93
62476;DHT22;50739;45.670;11.936;2024-02-23T04:52:25;9.94;97.89
62476;DHT22;50739;45.670;11.936;2024-02-23T04:57:28;9.99;97.75
62476;DHT22;50739;45.670;11.936;2024-02-23T05:02:30;9.97;97.83
62476;DHT22;50739;45.670;11.936;2024-02-23T05:07:37;9.97;97.82
62476;DHT22;50739;45.670;11.936;2024-02-23T05:12:39;9.91;98.17
62476;DHT22;50739;45.670;11.936;2024-02-23T05:17:42;10.04;97.54
62476;DHT22;50739;45.670;11.936;2024-02-23T05:22:45;10.03;97.69
62476;DHT22;50739;45.670;11.936;2024-02-23T05:27:48;10.03;97.47
62476;DHT22;50739;45.670;11.936;2024-02-23T05:32:50;10.01;97.51
62476;DHT22;50739;45.670;11.936;2024-02-23T05:37:54;9.99;97.96
62476;DHT22;50739;45.670;11.936;2024-02-23T05:42:57;10.09;97.76
62476;DHT22;50739;45.670;11.936;2024-02-23T05:47:59;10.13;97.44
62476;DHT22;50739;45.670;11.936;2024-02-23T05:53:03;10.11;97.13
62476;DHT22;50739;45.670;11.936;2024-02-23T05:58:06;10.18;96.98
62476;DHT22;50739;45.670;11.936;2024-02-23T06:03:09;10.16;97.03
62476;DHT22;50739;45.670;11.936;2024-02-23T06:08:13;10.10;97.14
62476;DHT22;50739;45.670;11.936;2024-02-23T06:13:15;10.21;96.75
62476;DHT22;50739;45.670;11.936;2024-02-23T06:18:18;10.21;96.72
62476;DHT22;50739;45.670;11.936;2024-02-23T06:23:33;10.20;97.01
62476;DHT22;50739;45.670;11.936;2024-02-23T06:28:35;10.17;97.09
62476;DHT22;50739;45.670;11.936;2024-02-23T06:33:41;10.27;96.40
62476;DHT22;50739;45.670;11.936;2024-02-23T06:38:45;10.34;95.97
62476;DHT22;50739;45.670;11.936;2024-02-23T06:43:47;10.30;96.05
62476;DHT22;50739;45.670;11.936;2024-02-23T06:48:50;10.35;95.80
62476;DHT22;50739;45.670;11.936;2024-02-23T06:53:53;10.33;95.63
62476;DHT22;50739;45.670;11.936;2024-02-23T06:58:57;10.34;95.83
62476;DHT22;50739;45.670;11.936;2024-02-23T07:03:59;10.34;95.90
62476;DHT22;50739;45.670;11.936;2024-02-23T07:09:03;10.34;95.97
62476;DHT22;50739;45.670;11.936;2024-02-23T07:14:06;10.22;96.53
62476;DHT22;50739;45.670;11.936;2024-02-23T07:19:10;10.24;96.63
62476;DHT22;50739;45.670;11.936;2024-02-23T07:24:15;10.38;95.97
62476;DHT22;50739;45.670;11.936;2024-02-23T07:29:18;10.34;96.18
62476;DHT22;50739;45.670;11.936;2024-02-23T07:34:20;10.38;96.54
62476;DHT22;50739;45.670;11.936;2024-02-23T07:39:24;10.37;96.60
62476;DHT22;50739;45.670;11.936;2024-02-23T07:44:27;10.30;97.04
62476;DHT22;50739;45.670;11.936;2024-02-23T07:49:29;10.24;97.41
62476;DHT22;50739;45.670;11.936;2024-02-23T07:54:33;10.24;97.66
62476;DHT22;50739;45.670;11.936;2024-02-23T07:59:36;10.27;97.57
62476;DHT22;50739;45.670;11.936;2024-02-23T08:04:38;10.31;97.40
62476;DHT22;50739;45.670;11.936;2024-02-23T08:09:42;10.30;97.53
62476;DHT22;50739;45.670;11.936;2024-02-23T08:14:45;10.27;97.92
62476;DHT22;50739;45.670;11.936;2024-02-23T08:19:49;10.30;97.85
62476;DHT22;50739;45.670;11.936;2024-02-23T08:24:53;10.41;97.52
62476;DHT22;50739;45.670;11.936;2024-02-23T08:29:55;10.40;97.70
62476;DHT22;50739;45.670;11.936;2024-02-23T08:35:00;10.40;97.55
62476;DHT22;50739;45.670;11.936;2024-02-23T08:40:04;10.40;97.90
62476;DHT22;50739;45.670;11.936;2024-02-23T08:45:08;10.34;98.00
62476;DHT22;50739;45.670;11.936;2024-02-23T08:50:13;10.42;97.76
62476;DHT22;50739;45.670;11.936;2024-02-23T08:55:17;10.45;97.91
62476;DHT22;50739;45.670;11.936;2024-02-23T09:00:19;10.44;97.89
62476;DHT22;50739;45.670;11.936;2024-02-23T09:05:22;10.49;97.63
62476;DHT22;50739;45.670;11.936;2024-02-23T09:10:25;10.48;97.37
62476;DHT22;50739;45.670;11.936;2024-02-23T09:15:28;10.56;97.08
62476;DHT22;50739;45.670;11.936;2024-02-23T09:20:30;10.44;97.61
62476;DHT22;50739;45.670;11.936;2024-02-23T09:25:34;10.44;97.69
62476;DHT22;50739;45.670;11.936;2024-02-23T09:30:36;10.49;97.27
62476;DHT22;50739;45.670;11.936;2024-02-23T09:35:39;10.47;97.35
62476;DHT22;50739;45.670;11.936;2024-02-23T09:40:43;10.48;97.58
62476;DHT22;50739;45.670;11.936;2024-02-23T09:45:45;10.55;97.30
62476;DHT22;50739;45.670;11.936;2024-02-23T09:50:50;10.54;97.37
62476;DHT22;50739;45.670;11.936;2024-02-23T09:55:55;10.51;97.21
62476;DHT22;50739;45.670;11.936;2024-02-23T10:00:59;10.49;97.45
62476;DHT22;50739;45.670;11.936;2024-02-23T10:06:04;10.49;97.68
62476;DHT22;50739;45.670;11.936;2024-02-23T10:11:08;10.47;97.87
62476;DHT22;50739;45.670;11.936;2024-02-23T10:16:10;10.47;98.06
62476;DHT22;50739;45.670;11.936;2024-02-23T10:21:13;10.52;97.74
62476;DHT22;50739;45.670;11.936;2024-02-23T10:26:17;10.52;97.85
62476;DHT22;50739;45.670;11.936;2024-02-23T10:31:24;10.55;97.97
62476;DHT22;50739;45.670;11.936;2024-02-23T10:36:28;10.48;98.09
62476;DHT22;50739;45.670;11.936;2024-02-23T10:41:35;10.51;98.22
62476;DHT22;50739;45.670;11.936;2024-02-23T10:46:37;10.49;98.16
62476;DHT22;50739;45.670;11.936;2024-02-23T10:51:42;10.59;98.12
62476;DHT22;50739;45.670;11.936;2024-02-23T10:56:50;10.51;98.25
62476;DHT22;50739;45.670;11.936;2024-02-23T11:01:54;10.48;98.35
62476;DHT22;50739;45.670;11.936;2024-02-23T11:06:58;10.54;98.26
62476;DHT22;50739;45.670;11.936;2024-02-23T11:12:07;10.49;98.50
62476;DHT22;50739;45.670;11.936;2024-02-23T11:17:17;10.61;98.03
62476;DHT22;50739;45.670;11.936;2024-02-23T11:22:24;10.65;98.33
62476;DHT22;50739;45.670;11.936;2024-02-23T11:27:30;10.49;98.47
62476;DHT22;50739;45.670;11.936;2024-02-23T11:32:37;10.65;97.75
62476;DHT22;50739;45.670;11.936;2024-02-23T11:37:47;10.59;97.92
62476;DHT22;50739;45.670;11.936;2024-02-23T11:42:52;10.59;98.01
62476;DHT22;50739;45.670;11.936;2024-02-23T11:47:56;10.59;98.29
62476;DHT22;50739;45.670;11.936;2024-02-23T11:52:59;10.55;98.40
62476;DHT22;50739;45.670;11.936;2024-02-23T11:58:03;10.62;98.27
62476;DHT22;50739;45.670;11.936;2024-02-23T12:03:07;10.56;97.98
62476;DHT22;50739;45.670;11.936;2024-02-23T12:08:10;10.65;97.92
62476;DHT22;50739;45.670;11.936;2024-02-23T12:13:14;10.66;97.94
62476;DHT22;50739;45.670;11.936;2024-02-23T12:18:17;10.61;97.88
62476;DHT22;50739;45.670;11.936;2024-02-23T12:23:21;10.61;98.28
62476;DHT22;50739;45.670;11.936;2024-02-23T12:28:24;10.61;98.43
62476;DHT22;50739;45.670;11.936;2024-02-23T12:33:28;10.54;98.41
62476;DHT22;50739;45.670;11.936;2024-02-23T12:38:31;10.56;98.02
62476;DHT22;50739;45.670;11.936;2024-02-23T12:43:35;10.66;98.06
62476;DHT22;50739;45.670;11.936;2024-02-23T12:48:38;10.55;98.21
62476;DHT22;50739;45.670;11.936;2024-02-23T12:53:41;10.51;98.42
62476;DHT22;50739;45.670;11.936;2024-02-23T12:58:45;10.56;98.20
62476;DHT22;50739;45.670;11.936;2024-02-23T13:03:48;10.55;97.76
62476;DHT22;50739;45.670;11.936;2024-02-23T13:08:50;10.51;97.81
62476;DHT22;50739;45.670;11.936;2024-02-23T13:13:54;10.54;97.86
62476;DHT22;50739;45.670;11.936;2024-02-23T13:18:56;10.49;97.89
62476;DHT22;50739;45.670;11.936;2024-02-23T13:23:59;10.51;97.60
62476;DHT22;50739;45.670;11.936;2024-02-23T13:29:02;10.42;97.77
62476;DHT22;50739;45.670;11.936;2024-02-23T13:34:05;10.47;98.00
62476;DHT22;50739;45.670;11.936;2024-02-23T13:39:08;10.45;98.22
62476;DHT22;50739;45.670;11.936;2024-02-23T13:44:11;10.45;98.50
62476;DHT22;50739;45.670;11.936;2024-02-23T13:49:14;10.49;98.66
62476;DHT22;50739;45.670;11.936;2024-02-23T13:54:16;10.58;98.59
62476;DHT22;50739;45.670;11.936;2024-02-23T13:59:20;10.55;98.76
62476;DHT22;50739;45.670;11.936;2024-02-23T14:04:22;10.58;99.03
62476;DHT22;50739;45.670;11.936;2024-02-23T14:09:25;10.61;98.93
62476;DHT22;50739;45.670;11.936;2024-02-23T14:14:28;10.72;99.01
62476;DHT22;50739;45.670;11.936;2024-02-23T14:19:31;10.68;98.84
62476;DHT22;50739;45.670;11.936;2024-02-23T14:24:33;10.65;99.21
62476;DHT22;50739;45.670;11.936;2024-02-23T14:29:37;10.89;98.80
62476;DHT22;50739;45.670;11.936;2024-02-23T14:34:39;10.56;97.86
62476;DHT22;50739;45.670;11.936;2024-02-23T14:39:42;10.58;98.02
62476;DHT22;50739;45.670;11.936;2024-02-23T14:44:45;10.58;98.04
62476;DHT22;50739;45.670;11.936;2024-02-23T14:49:48;10.61;97.84
62476;DHT22;50739;45.670;11.936;2024-02-23T14:54:50;10.62;98.37
62476;DHT22;50739;45.670;11.936;2024-02-23T14:59:56;10.51;98.65
62476;DHT22;50739;45.670;11.936;2024-02-23T15:04:58;10.71;98.08
62476;DHT22;50739;45.670;11.936;2024-02-23T15:10:01;10.65;97.64
62476;DHT22;50739;45.670;11.936;2024-02-23T15:15:08;10.62;97.49
62476;DHT22;50739;45.670;11.936;2024-02-23T15:20:11;10.61;97.93
62476;DHT22;50739;45.670;11.936;2024-02-23T15:25:14;10.56;98.07
62476;DHT22;50739;45.670;11.936;2024-02-23T15:30:18;10.48;97.77
62476;DHT22;50739;45.670;11.936;2024-02-23T15:35:21;10.41;98.01
62476;DHT22;50739;45.670;11.936;2024-02-23T15:40:23;10.38;98.09
62476;DHT22;50739;45.670;11.936;2024-02-23T15:45:27;10.48;97.97
62476;DHT22;50739;45.670;11.936;2024-02-23T15:50:29;10.33;97.62
62476;DHT22;50739;45.670;11.936;2024-02-23T15:55:32;10.31;97.70
62476;DHT22;50739;45.670;11.936;2024-02-23T16:00:36;10.24;97.93
62476;DHT22;50739;45.670;11.936;2024-02-23T16:05:38;10.21;98.02
62476;DHT22;50739;45.670;11.936;2024-02-23T16:10:41;10.13;97.97
62476;DHT22;50739;45.670;11.936;2024-02-23T16:15:45;10.11;98.14
62476;DHT22;50739;45.670;11.936;2024-02-23T16:20:48;10.13;98.09
62476;DHT22;50739;45.670;11.936;2024-02-23T16:25:51;10.13;97.90
62476;DHT22;50739;45.670;11.936;2024-02-23T16:30:55;10.09;97.35
62476;DHT22;50739;45.670;11.936;2024-02-23T16:35:58;10.01;97.50
62476;DHT22;50739;45.670;11.936;2024-02-23T16:41:01;10.01;97.30
62476;DHT22;50739;45.670;11.936;2024-02-23T16:46:05;9.97;97.57
62476;DHT22;50739;45.670;11.936;2024-02-23T16:51:07;9.99;97.36
62476;DHT22;50739;45.670;11.936;2024-02-23T16:56:10;9.97;97.81
62476;DHT22;50739;45.670;11.936;2024-02-23T17:01:13;9.93;97.76
62476;DHT22;50739;45.670;11.936;2024-02-23T17:06:16;9.94;97.59
62476;DHT22;50739;45.670;11.936;2024-02-23T17:11:18;9.90;97.58
62476;DHT22;50739;45.670;11.936;2024-02-23T17:16:22;9.86;96.87
62476;DHT22;50739;45.670;11.936;2024-02-23T17:21:28;9.85;96.90
62476;DHT22;50739;45.670;11.936;2024-02-23T17:26:30;9.86;96.89
62476;DHT22;50739;45.670;11.936;2024-02-23T17:31:34;9.75;96.93
62476;DHT22;50739;45.670;11.936;2024-02-23T17:36:36;9.72;96.83
62476;DHT22;50739;45.670;11.936;2024-02-23T17:41:43;9.71;97.24
62476;DHT22;50739;45.670;11.936;2024-02-23T17:46:47;9.69;96.70
62476;DHT22;50739;45.670;11.936;2024-02-23T17:51:49;9.80;96.28
62476;DHT22;50739;45.670;11.936;2024-02-23T17:56:52;9.75;96.75
62476;DHT22;50739;45.670;11.936;2024-02-23T18:01:57;9.78;96.79
62476;DHT22;50739;45.670;11.936;2024-02-23T18:06:59;9.79;96.71
62476;DHT22;50739;45.670;11.936;2024-02-23T18:12:02;9.80;97.18
62476;DHT22;50739;45.670;11.936;2024-02-23T18:17:06;10.00;96.61
62476;DHT22;50739;45.670;11.936;2024-02-23T18:22:08;9.93;96.74
62476;DHT22;50739;45.670;11.936;2024-02-23T18:27:11;9.90;97.09
62476;DHT22;50739;45.670;11.936;2024-02-23T18:32:15;9.79;97.41
62476;DHT22;50739;45.670;11.936;2024-02-23T18:37:17;9.78;96.99
62476;DHT22;50739;45.670;11.936;2024-02-23T18:42:24;9.78;97.84
62476;DHT22;50739;45.670;11.936;2024-02-23T18:47:29;9.87;97.77
62476;DHT22;50739;45.670;11.936;2024-02-23T18:52:32;9.79;97.76
62476;DHT22;50739;45.670;11.936;2024-02-23T18:57:34;9.80;97.59
62476;DHT22;50739;45.670;11.936;2024-02-23T19:02:38;9.83;97.55
62476;DHT22;50739;45.670;11.936;2024-02-23T19:07:40;9.85;97.57
62476;DHT22;50739;45.670;11.936;2024-02-23T19:12:43;9.82;97.46
62476;DHT22;50739;45.670;11.936;2024-02-23T19:17:46;9.75;97.54
62476;DHT22;50739;45.670;11.936;2024-02-23T19:22:49;9.85;97.77
62476;DHT22;50739;45.670;11.936;2024-02-23T19:27:54;9.90;97.90
62476;DHT22;50739;45.670;11.936;2024-02-23T19:32:58;9.89;98.19
62476;DHT22;50739;45.670;11.936;2024-02-23T19:38:00;9.93;97.82
62476;DHT22;50739;45.670;11.936;2024-02-23T19:43:03;9.83;98.18
62476;DHT22;50739;45.670;11.936;2024-02-23T19:48:07;9.90;98.42
62476;DHT22;50739;45.670;11.936;2024-02-23T19:53:09;10.06;97.93
62476;DHT22;50739;45.670;11.936;2024-02-23T19:58:12;10.13;97.47
62476;DHT22;50739;45.670;11.936;2024-02-23T20:03:18;10.07;97.52
62476;DHT22;50739;45.670;11.936;2024-02-23T20:08:20;10.17;97.25
62476;DHT22;50739;45.670;11.936;2024-02-23T20:13:24;10.01;97.10
62476;DHT22;50739;45.670;11.936;2024-02-23T20:18:28;9.97;97.65
62476;DHT22;50739;45.670;11.936;2024-02-23T20:23:30;9.93;97.70
62476;DHT22;50739;45.670;11.936;2024-02-23T20:28:32;10.00;98.05
62476;DHT22;50739;45.670;11.936;2024-02-23T20:33:36;9.91;97.85
62476;DHT22;50739;45.670;11.936;2024-02-23T20:38:40;9.78;98.08
62476;DHT22;50739;45.670;11.936;2024-02-23T20:43:43;9.76;98.81
62476;DHT22;50739;45.670;11.936;2024-02-23T20:48:47;9.89;98.31
62476;DHT22;50739;45.670;11.936;2024-02-23T20:53:49;9.91;98.49
62476;DHT22;50739;45.670;11.936;2024-02-23T20:58:51;9.89;97.20
62476;DHT22;50739;45.670;11.936;2024-02-23T21:03:55;9.89;97.23
62476;DHT22;50739;45.670;11.936;2024-02-23T21:09:00;9.72;97.42
62476;DHT22;50739;45.670;11.936;2024-02-23T21:14:05;9.68;97.94
62476;DHT22;50739;45.670;11.936;2024-02-23T21:19:09;9.69;98.19
62476;DHT22;50739;45.670;11.936;2024-02-23T21:24:11;9.56;98.09
62476;DHT22;50739;45.670;11.936;2024-02-23T21:29:14;9.53;98.85
62476;DHT22;50739;45.670;11.936;2024-02-23T21:34:18;9.68;98.26
62476;DHT22;50739;45.670;11.936;2024-02-23T21:39:20;9.61;97.63
62476;DHT22;50739;45.670;11.936;2024-02-23T21:44:23;9.59;97.60
62476;DHT22;50739;45.670;11.936;2024-02-23T21:49:26;9.51;97.72
62476;DHT22;50739;45.670;11.936;2024-02-23T21:54:29;9.58;97.66
62476;DHT22;50739;45.670;11.936;2024-02-23T21:59:31;9.59;97.57
62476;DHT22;50739;45.670;11.936;2024-02-23T22:04:35;9.52;97.34
62476;DHT22;50739;45.670;11.936;2024-02-23T22:09:39;9.53;97.51
62476;DHT22;50739;45.670;11.936;2024-02-23T22:14:42;9.42;97.65
62476;DHT22;50739;45.670;11.936;2024-02-23T22:19:46;9.48;97.63
62476;DHT22;50739;45.670;11.936;2024-02-23T22:24:49;9.46;97.65
62476;DHT22;50739;45.670;11.936;2024-02-23T22:29:51;9.34;98.23
62476;DHT22;50739;45.670;11.936;2024-02-23T22:34:55;9.24;98.48
62476;DHT22;50739;45.670;11.936;2024-02-23T22:39:57;9.44;98.09
62476;DHT22;50739;45.670;11.936;2024-02-23T22:44:59;9.51;97.93
62476;DHT22;50739;45.670;11.936;2024-02-23T22:50:03;9.42;97.83
62476;DHT22;50739;45.670;11.936;2024-02-23T22:55:06;9.27;97.47
62476;DHT22;50739;45.670;11.936;2024-02-23T23:00:09;9.18;97.90
62476;DHT22;50739;45.670;11.936;2024-02-23T23:05:13;9.24;97.84
62476;DHT22;50739;45.670;11.936;2024-02-23T23:10:15;9.15;97.44
62476;DHT22;50739;45.670;11.936;2024-02-23T23:15:18;9.21;97.89
62476;DHT22;50739;45.670;11.936;2024-02-23T23:20:22;9.23;97.47
62476;DHT22;50739;45.670;11.936;2024-02-23T23:25:24;9.17;97.25
62476;DHT22;50739;45.670;11.936;2024-02-23T23:30:27;9.00;96.95
62476;DHT22;50739;45.670;11.936;2024-02-23T23:35:31;8.81;97.25
62476;DHT22;50739;45.670;11.936;2024-02-23T23:40:33;8.90;96.95
62476;DHT22;50739;45.670;11.936;2024-02-23T23:45:36;8.73;97.03
62476;DHT22;50739;45.670;11.936;2024-02-23T23:50:40;8.63;97.09
62476;DHT22;50739;45.670;11.936;2024-02-23T23:55:42;8.73;96.76
